createdAt,value
2019-05-07T00:02:14.593Z,98558.20
2019-05-07T00:04:44.092Z,98562.03
2019-05-07T00:07:13.536Z,98562.97
2019-05-07T00:09:43.212Z,98563.95
2019-05-07T00:12:12.732Z,98570.53
2019-05-07T00:14:43.022Z,98576.98
2019-05-07T00:17:13.476Z,98578.17
2019-05-07T00:19:43.287Z,98587.61
2019-05-07T00:22:12.869Z,98587.86
2019-05-07T00:24:42.774Z,98592.63
2019-05-07T00:27:13.150Z,98591.22
2019-05-07T00:29:43.032Z,98594.56
2019-05-07T00:32:12.603Z,98595.75
2019-05-07T00:34:46.301Z,98596.41
2019-05-07T00:37:29.370Z,98597.13
2019-05-07T00:40:17.198Z,98604.05
2019-05-07T00:43:04.644Z,98601.53
2019-05-07T00:48:26.799Z,98606.30
2019-05-07T00:50:57.803Z,98611.10
2019-05-07T00:53:27.168Z,98618.81
2019-05-07T00:55:56.521Z,98615.45
2019-05-07T00:58:27.058Z,98624.91
2019-05-07T01:00:56.484Z,98622.03
2019-05-07T01:03:25.848Z,98625.95
2019-05-07T01:05:55.214Z,98628.92
2019-05-07T01:08:24.585Z,98630.62
2019-05-07T01:10:53.952Z,98630.87
2019-05-07T01:13:23.612Z,98629.64
2019-05-07T01:15:53.415Z,98634.64
2019-05-07T01:18:23.468Z,98641.22
2019-05-07T01:20:53.411Z,98631.41
2019-05-07T01:23:23.163Z,98646.09
2019-05-07T01:25:52.949Z,98640.61
2019-05-07T01:28:22.558Z,98643.67
2019-05-07T01:30:52.812Z,98643.47
2019-05-07T01:33:24.185Z,98644.28
2019-05-07T01:38:37.102Z,98649.27
2019-05-07T01:41:06.472Z,98654.02
2019-05-07T01:43:35.834Z,98654.13
2019-05-07T01:46:05.217Z,98650.02
2019-05-07T01:48:34.896Z,98653.38
2019-05-07T01:51:04.299Z,98655.08
2019-05-07T01:53:33.670Z,98654.11
2019-05-07T01:56:03.416Z,98658.77
2019-05-07T01:58:33.326Z,98656.48
2019-05-07T02:01:03.058Z,98656.23
2019-05-07T02:06:13.322Z,98664.31
2019-05-07T02:08:50.274Z,98658.33
2019-05-07T02:11:37.785Z,98662.20
2019-05-07T02:14:07.140Z,98655.48
2019-05-07T02:16:36.522Z,98673.02
2019-05-07T02:19:08.774Z,98667.52
2019-05-07T02:21:38.186Z,98667.52
2019-05-07T02:24:07.609Z,98670.88
2019-05-07T02:26:37.054Z,98668.58
2019-05-07T02:29:06.496Z,98671.91
2019-05-07T02:31:35.846Z,98676.94
2019-05-07T02:34:05.194Z,98679.78
2019-05-07T02:36:35.268Z,98679.62
2019-05-07T02:39:24.102Z,98688.14
2019-05-07T02:41:54.370Z,98690.86
2019-05-07T02:44:23.816Z,98696.27
2019-05-07T02:46:57.776Z,98694.86
2019-05-07T02:49:28.765Z,98692.95
2019-05-07T02:52:08.690Z,98701.59
2019-05-07T02:54:55.845Z,98692.66
2019-05-07T02:57:25.675Z,98695.53
2019-05-07T02:59:55.047Z,98692.52
2019-05-07T03:02:24.468Z,98694.66
2019-05-07T03:04:53.833Z,98702.09
2019-05-07T03:07:24.230Z,98701.78
2019-05-07T03:09:54.173Z,98715.34
2019-05-07T03:12:24.007Z,98712.02
2019-05-07T03:14:54.056Z,98712.33
2019-05-07T03:17:24.518Z,98722.05
2019-05-07T03:19:55.612Z,98718.47
2019-05-07T03:22:25.072Z,98714.53
2019-05-07T03:25:05.389Z,98718.69
2019-05-07T03:27:34.736Z,98719.27
2019-05-07T03:32:47.613Z,98723.64
2019-05-07T03:35:37.014Z,98725.74
2019-05-07T03:38:05.669Z,98731.56
2019-05-07T03:40:35.982Z,98732.16
2019-05-07T03:43:06.175Z,98730.84
2019-05-07T03:45:42.979Z,98733.47
2019-05-07T03:48:15.578Z,98737.02
2019-05-07T03:50:45.026Z,98745.80
2019-05-07T03:53:14.597Z,98746.06
2019-05-07T03:55:44.838Z,98751.87
2019-05-07T03:58:14.991Z,98758.91
2019-05-07T04:00:45.208Z,98759.53
2019-05-07T04:03:18.974Z,98754.23
2019-05-07T04:05:45.684Z,98770.91
2019-05-07T04:08:15.130Z,98768.36
2019-05-07T04:10:44.744Z,98774.48
2019-05-07T04:13:14.253Z,98771.07
2019-05-07T04:15:44.260Z,98779.69
2019-05-07T04:18:13.792Z,98783.14
2019-05-07T04:20:43.863Z,98784.92
2019-05-07T04:23:14.234Z,98781.81
2019-05-07T04:25:45.523Z,98777.31
2019-05-07T04:28:33.489Z,98775.31
2019-05-07T04:31:03.395Z,98769.97
2019-05-07T04:33:37.464Z,98785.98
2019-05-07T04:36:08.452Z,98781.56
2019-05-07T04:38:37.887Z,98782.73
2019-05-07T04:41:07.310Z,98788.39
2019-05-07T04:43:36.761Z,98789.00
2019-05-07T04:46:06.311Z,98796.36
2019-05-07T04:48:35.658Z,98799.30
2019-05-07T04:51:06.664Z,98802.78
2019-05-07T04:53:36.023Z,98798.36
2019-05-07T04:56:05.451Z,98807.02
2019-05-07T04:58:34.805Z,98804.61
2019-05-07T05:01:05.528Z,98799.19
2019-05-07T05:03:38.984Z,98805.30
2019-05-07T05:06:06.026Z,98804.17
2019-05-07T05:08:35.583Z,98815.31
2019-05-07T05:11:04.938Z,98816.73
2019-05-07T05:13:34.374Z,98812.42
2019-05-07T05:16:05.480Z,98817.92
2019-05-07T05:18:34.855Z,98813.16
2019-05-07T05:21:08.472Z,98821.22
2019-05-07T05:23:45.662Z,98829.01
2019-05-07T05:26:15.005Z,98824.22
2019-05-07T05:28:44.362Z,98822.64
2019-05-07T05:31:13.785Z,98832.00
2019-05-07T05:33:43.260Z,98833.43
2019-05-07T05:36:12.838Z,98830.53
2019-05-07T05:38:42.609Z,98827.63
2019-05-07T05:41:12.490Z,98832.45
2019-05-07T05:43:52.814Z,98837.30
2019-05-07T05:46:23.882Z,98830.12
2019-05-07T05:48:53.263Z,98840.28
2019-05-07T05:51:42.995Z,98832.78
2019-05-07T05:54:26.374Z,98840.79
2019-05-07T05:56:57.343Z,98844.03
2019-05-07T05:59:47.879Z,98840.45
2019-05-07T06:02:06.843Z,98844.14
2019-05-07T06:04:56.136Z,98837.38
2019-05-07T06:07:31.908Z,98847.58
2019-05-07T06:10:17.978Z,98846.70
2019-05-07T06:12:49.121Z,98856.13
2019-05-07T06:15:23.082Z,98848.19
2019-05-07T06:18:18.816Z,98855.47
2019-05-07T06:20:46.153Z,98853.53
2019-05-07T06:23:23.334Z,98860.41
2019-05-07T06:25:52.916Z,98867.25
2019-05-07T06:28:22.601Z,98855.05
2019-05-07T06:30:52.720Z,98856.28
2019-05-07T06:33:23.094Z,98857.28
2019-05-07T06:35:52.700Z,98869.88
2019-05-07T06:38:23.211Z,98859.65
2019-05-07T06:40:56.937Z,98863.50
2019-05-07T06:43:46.394Z,98859.61
2019-05-07T06:46:15.833Z,98859.69
2019-05-07T06:48:46.302Z,98861.72
2019-05-07T06:51:17.550Z,98864.13
2019-05-07T06:53:47.140Z,98862.77
2019-05-07T06:56:16.483Z,98862.61
2019-05-07T06:58:52.485Z,98871.41
2019-05-07T07:01:28.973Z,98870.89
2019-05-07T07:04:15.381Z,98873.56
2019-05-07T07:06:49.227Z,98871.09
2019-05-07T07:09:22.279Z,98859.11
2019-05-07T07:11:58.664Z,98864.06
2019-05-07T07:14:28.035Z,98867.36
2019-05-07T07:16:57.497Z,98867.67
2019-05-07T07:19:26.846Z,98864.31
2019-05-07T07:21:56.263Z,98848.33
2019-05-07T07:24:25.637Z,98876.08
2019-05-07T07:26:54.984Z,98867.76
2019-05-07T07:29:26.000Z,98874.86
2019-05-07T07:31:57.053Z,98874.14
2019-05-07T07:34:27.880Z,98863.04
2019-05-07T07:37:15.799Z,98865.44
2019-05-07T07:39:45.466Z,98874.22
2019-05-07T07:42:18.101Z,98875.70
2019-05-07T07:44:49.069Z,98880.69
2019-05-07T07:47:18.545Z,98867.52
2019-05-07T07:49:47.998Z,98867.52
2019-05-07T07:52:17.726Z,98880.48
2019-05-07T07:54:53.004Z,98877.86
2019-05-07T08:00:40.053Z,98894.46
2019-05-07T08:03:13.234Z,98889.88
2019-05-07T08:05:42.732Z,98885.96
2019-05-07T08:08:12.926Z,98877.52
2019-05-07T08:10:42.806Z,98878.05
2019-05-07T08:13:16.783Z,98887.86
2019-05-07T08:15:51.930Z,98882.39
2019-05-07T08:18:17.506Z,98887.59
2019-05-07T08:20:46.849Z,98887.59
2019-05-07T08:23:16.176Z,98885.63
2019-05-07T08:25:48.236Z,98896.31
2019-05-07T08:28:23.188Z,98900.16
2019-05-07T08:30:57.359Z,98912.02
2019-05-07T08:33:28.378Z,98903.37
2019-05-07T08:36:17.825Z,98896.11
2019-05-07T08:38:52.870Z,98900.94
2019-05-07T08:41:23.724Z,98900.64
2019-05-07T08:44:11.712Z,98900.64
2019-05-07T08:46:53.998Z,98890.34
2019-05-07T08:49:35.720Z,98898.63
2019-05-07T08:52:03.817Z,98907.28
2019-05-07T08:54:34.368Z,98907.28
2019-05-07T08:57:08.257Z,98908.83
2019-05-07T08:59:37.872Z,98906.36
2019-05-07T09:02:12.617Z,98894.31
2019-05-07T09:04:44.368Z,98894.31
2019-05-07T09:07:13.519Z,98891.55
2019-05-07T09:09:42.977Z,98891.55
2019-05-07T09:12:12.657Z,98892.64
2019-05-07T09:14:42.761Z,98890.22
2019-05-07T09:17:15.672Z,98895.58
2019-05-07T09:19:51.560Z,98881.67
2019-05-07T09:22:19.699Z,98881.67
2019-05-07T09:24:53.713Z,98885.25
2019-05-07T09:27:28.958Z,98879.73
2019-05-07T09:30:17.102Z,98884.05
2019-05-07T09:32:52.187Z,98874.37
2019-05-07T09:35:26.178Z,98874.37
2019-05-07T09:38:12.242Z,98898.96
2019-05-07T09:40:42.238Z,98899.95
2019-05-07T09:43:11.774Z,98906.93
2019-05-07T09:45:42.050Z,98896.59
2019-05-07T09:48:13.393Z,98896.59
2019-05-07T09:50:44.443Z,98921.48
2019-05-07T09:53:13.922Z,98902.24
2019-05-07T09:55:44.758Z,98904.91
2019-05-07T09:58:14.186Z,98916.31
2019-05-07T10:00:44.136Z,98916.31
2019-05-07T10:03:15.170Z,98908.91
2019-05-07T10:05:51.869Z,98909.03
2019-05-07T10:08:39.632Z,98903.80
2019-05-07T10:11:12.119Z,98902.61
2019-05-07T10:13:44.750Z,98899.05
2019-05-07T10:16:15.855Z,98907.16
2019-05-07T10:18:45.740Z,98908.53
2019-05-07T10:21:15.581Z,98908.53
2019-05-07T10:23:48.273Z,98910.79
2019-05-07T10:26:26.732Z,98910.05
2019-05-07T10:31:49.215Z,98912.79
2019-05-07T10:34:22.898Z,98918.42
2019-05-07T10:36:53.828Z,98903.25
2019-05-07T10:39:23.433Z,98922.28
2019-05-07T10:41:57.819Z,98919.96
2019-05-07T10:44:29.295Z,98919.96
2019-05-07T10:47:17.832Z,98919.80
2019-05-07T10:50:05.001Z,98910.63
2019-05-07T10:52:34.683Z,98906.96
2019-05-07T10:55:04.480Z,98906.96
2019-05-07T10:57:33.987Z,98913.06
2019-05-07T11:00:03.665Z,98910.54
2019-05-07T11:02:33.416Z,98917.36
2019-05-07T11:05:07.983Z,98910.07
2019-05-07T11:07:42.179Z,98925.67
2019-05-07T11:10:14.789Z,98926.61
2019-05-07T11:12:46.052Z,98931.06
2019-05-07T11:15:27.302Z,98923.25
2019-05-07T11:17:59.554Z,98926.80
2019-05-07T11:20:29.171Z,98964.48
2019-05-07T11:23:04.230Z,98945.21
2019-05-07T11:25:37.926Z,98955.02
2019-05-07T11:28:07.335Z,98957.60
2019-05-07T11:30:36.895Z,98964.47
2019-05-07T11:33:08.083Z,98953.80
2019-05-07T11:35:37.823Z,98953.80
2019-05-07T11:38:18.667Z,98967.10
2019-05-07T11:40:44.866Z,98967.11
2019-05-07T11:43:15.888Z,98967.11
2019-05-07T11:46:02.030Z,98961.26
2019-05-07T11:48:38.388Z,98967.95
2019-05-07T11:51:12.377Z,98966.46
2019-05-07T11:54:02.090Z,98984.97
2019-05-07T11:56:33.322Z,98984.97
2019-05-07T11:59:05.834Z,98982.27
2019-05-07T12:01:46.935Z,98991.36
2019-05-07T12:04:12.505Z,98991.36
2019-05-07T12:06:42.252Z,98987.17
2019-05-07T12:09:12.166Z,98987.37
2019-05-07T12:11:42.585Z,98996.34
2019-05-07T12:14:12.554Z,99005.24
2019-05-07T12:16:42.690Z,99005.24
2019-05-07T12:19:16.599Z,98992.49
2019-05-07T12:21:48.456Z,99007.80
2019-05-07T12:24:19.589Z,99001.83
2019-05-07T12:26:53.130Z,99001.83
2019-05-07T12:29:22.688Z,98980.47
2019-05-07T12:32:02.804Z,98990.84
2019-05-07T12:34:39.891Z,98990.84
2019-05-07T12:37:09.544Z,98983.62
2019-05-07T12:39:47.867Z,98988.98
2019-05-07T12:42:22.309Z,98990.55
2019-05-07T12:44:52.379Z,98990.55
2019-05-07T12:47:22.539Z,98986.86
2019-05-07T12:49:52.244Z,98989.38
2019-05-07T12:52:23.434Z,98989.38
2019-05-07T12:54:57.463Z,98998.06
2019-05-07T12:57:26.899Z,99014.19
2019-05-07T12:59:57.910Z,99018.38
2019-05-07T13:02:40.880Z,99020.34
2019-05-07T13:05:07.768Z,99027.77
2019-05-07T13:07:38.761Z,99021.56
2019-05-07T13:10:08.790Z,99020.57
2019-05-07T13:12:38.317Z,99038.85
2019-05-07T13:15:20.524Z,99024.06
2019-05-07T13:17:39.211Z,99028.61
2019-05-07T13:20:08.805Z,99029.30
2019-05-07T13:22:38.251Z,99033.50
2019-05-07T13:25:08.213Z,99038.61
2019-05-07T13:27:40.045Z,99036.72
2019-05-07T13:30:08.932Z,99042.48
2019-05-07T13:32:41.906Z,99044.77
2019-05-07T13:35:14.406Z,99051.45
2019-05-07T13:37:52.792Z,99049.41
2019-05-07T13:40:39.105Z,99062.59
2019-05-07T13:43:11.882Z,99076.97
2019-05-07T13:45:48.992Z,99070.67
2019-05-07T13:48:22.652Z,99071.84
2019-05-07T13:50:55.286Z,99085.14
2019-05-07T13:53:26.095Z,99074.84
2019-05-07T13:56:03.272Z,99085.34
2019-05-07T13:58:33.034Z,99088.09
2019-05-07T14:01:20.033Z,99075.50
2019-05-07T14:03:49.733Z,99087.69
2019-05-07T14:06:36.992Z,99095.88
2019-05-07T14:09:10.891Z,99102.98
2019-05-07T14:11:42.322Z,99104.63
2019-05-07T14:14:12.284Z,99102.61
2019-05-07T14:16:44.974Z,99099.39
2019-05-07T14:19:14.744Z,99099.39
2019-05-07T14:21:44.302Z,99111.96
2019-05-07T14:24:14.916Z,99106.05
2019-05-07T14:26:44.434Z,99125.11
2019-05-07T14:29:13.952Z,99111.48
2019-05-07T14:31:43.414Z,99124.42
2019-05-07T14:34:17.391Z,99124.39
2019-05-07T14:36:48.399Z,99121.73
2019-05-07T14:39:17.754Z,99138.92
2019-05-07T14:41:48.763Z,99138.70
2019-05-07T14:44:19.010Z,99146.75
2019-05-07T14:46:53.642Z,99148.68
2019-05-07T14:49:22.619Z,99138.92
2019-05-07T14:51:53.942Z,99131.96
2019-05-07T14:54:23.097Z,99154.34
2019-05-07T14:56:52.454Z,99158.34
2019-05-07T14:59:21.810Z,99155.83
2019-05-07T15:01:52.223Z,99166.34
2019-05-07T15:04:22.199Z,99161.34
2019-05-07T15:06:51.999Z,99186.67
2019-05-07T15:09:22.391Z,99170.73
2019-05-07T15:11:52.682Z,99167.01
2019-05-07T15:14:22.177Z,99162.91
2019-05-07T15:16:53.186Z,99175.90
2019-05-07T15:19:22.742Z,99167.50
2019-05-07T15:22:09.871Z,99178.98
2019-05-07T15:24:39.362Z,99205.78
2019-05-07T15:27:08.864Z,99192.00
2019-05-07T15:29:42.078Z,99194.54
2019-05-07T15:32:12.593Z,99200.42
2019-05-07T15:34:42.296Z,99200.06
2019-05-07T15:37:12.292Z,99209.31
2019-05-07T15:39:42.188Z,99198.45
2019-05-07T15:42:11.684Z,99210.35
2019-05-07T15:44:43.078Z,99219.00
2019-05-07T15:47:13.893Z,99211.91
2019-05-07T15:49:43.339Z,99209.92
2019-05-07T15:52:14.343Z,99218.92
2019-05-07T15:54:43.732Z,99220.45
2019-05-07T15:57:14.779Z,99225.76
2019-05-07T15:59:44.160Z,99222.44
2019-05-07T16:02:15.201Z,99219.70
2019-05-07T16:04:44.562Z,99225.66
2019-05-07T16:07:14.215Z,99232.66
2019-05-07T16:09:43.639Z,99239.11
2019-05-07T16:12:14.587Z,99239.55
2019-05-07T16:14:43.959Z,99243.30
2019-05-07T16:17:14.992Z,99251.16
2019-05-07T16:19:44.348Z,99252.30
2019-05-07T16:22:15.465Z,99253.91
2019-05-07T16:24:44.852Z,99261.13
2019-05-07T16:27:14.197Z,99259.22
2019-05-07T16:29:43.609Z,99256.98
2019-05-07T16:32:12.982Z,99257.53
2019-05-07T16:34:42.934Z,99272.55
2019-05-07T16:37:12.591Z,99266.16
2019-05-07T16:39:42.748Z,99269.09
2019-05-07T16:42:12.203Z,99266.52
2019-05-07T16:44:41.899Z,99276.75
2019-05-07T16:47:12.193Z,99274.49
2019-05-07T16:49:42.454Z,99292.31
2019-05-07T16:52:12.189Z,99288.37
2019-05-07T16:54:42.663Z,99291.76
2019-05-07T16:57:17.313Z,99293.55
2019-05-07T16:59:46.763Z,99297.92
2019-05-07T17:02:17.756Z,99295.08
2019-05-07T17:05:06.212Z,99309.80
2019-05-07T17:07:37.226Z,99301.17
2019-05-07T17:10:11.648Z,99312.47
2019-05-07T17:12:43.963Z,99311.80
2019-05-07T17:15:13.509Z,99316.41
2019-05-07T17:17:42.892Z,99316.41
2019-05-07T17:20:12.843Z,99323.73
2019-05-07T17:22:42.738Z,99320.07
2019-05-07T17:25:30.147Z,99319.43
2019-05-07T17:27:59.551Z,99322.05
2019-05-07T17:30:29.108Z,99329.73
2019-05-07T17:32:58.593Z,99332.47
2019-05-07T17:35:28.053Z,99339.11
2019-05-07T17:38:06.321Z,99336.32
2019-05-07T17:40:28.692Z,99341.28
2019-05-07T17:42:58.060Z,99348.31
2019-05-07T17:45:27.450Z,99350.26
2019-05-07T17:47:56.909Z,99348.13
2019-05-07T17:50:27.942Z,99347.73
2019-05-07T17:52:57.384Z,99356.17
2019-05-07T17:55:26.788Z,99360.19
2019-05-07T17:57:56.262Z,99366.12
2019-05-07T18:00:25.741Z,99372.39
2019-05-07T18:03:13.105Z,99381.11
2019-05-07T18:05:42.710Z,99382.61
2019-05-07T18:08:12.611Z,99386.38
2019-05-07T18:10:42.514Z,99390.13
2019-05-07T18:13:11.986Z,99394.54
2019-05-07T18:15:42.751Z,99403.25
2019-05-07T18:18:12.963Z,99406.24
2019-05-07T18:20:42.552Z,99406.16
2019-05-07T18:23:16.811Z,99402.78
2019-05-07T18:25:43.085Z,99405.77
2019-05-07T18:28:13.040Z,99417.50
2019-05-07T18:30:42.510Z,99419.66
2019-05-07T18:33:16.240Z,99419.38
2019-05-07T18:35:47.259Z,99426.05
2019-05-07T18:38:16.726Z,99430.32
2019-05-07T18:40:46.189Z,99439.43
2019-05-07T18:43:15.565Z,99429.67
2019-05-07T18:45:45.027Z,99436.44
2019-05-07T18:48:14.454Z,99436.33
2019-05-07T18:50:43.885Z,99431.00
2019-05-07T18:53:13.279Z,99438.33
2019-05-07T18:55:42.781Z,99446.36
2019-05-07T18:58:13.357Z,99446.47
2019-05-07T19:00:44.606Z,99444.68
2019-05-07T19:03:14.053Z,99455.37
2019-05-07T19:05:43.468Z,99448.88
2019-05-07T19:08:12.906Z,99448.41
2019-05-07T19:10:42.916Z,99442.61
2019-05-07T19:13:12.717Z,99451.24
2019-05-07T19:15:42.455Z,99455.45
2019-05-07T19:18:13.553Z,99454.45
2019-05-07T19:20:42.926Z,99458.94
2019-05-07T19:23:12.352Z,99454.08
2019-05-07T19:25:42.154Z,99457.38
2019-05-07T19:28:14.670Z,99459.72
2019-05-07T19:30:42.846Z,99453.34
2019-05-07T19:33:12.534Z,99454.46
2019-05-07T19:35:42.012Z,99452.23
2019-05-07T19:38:11.472Z,99458.85
2019-05-07T19:40:42.019Z,99456.98
2019-05-07T19:43:11.635Z,99450.16
2019-05-07T19:45:41.850Z,99459.92
2019-05-07T19:48:12.417Z,99455.03
2019-05-07T19:50:42.075Z,99461.31
2019-05-07T19:53:12.507Z,99457.84
2019-05-07T19:56:02.020Z,99456.74
2019-05-07T19:58:32.706Z,99459.16
2019-05-07T20:01:03.662Z,99451.09
2019-05-07T20:03:33.098Z,99450.70
2019-05-07T20:06:02.595Z,99462.73
2019-05-07T20:08:32.489Z,99453.14
2019-05-07T20:11:03.525Z,99458.70
2019-05-07T20:13:32.924Z,99454.66
2019-05-07T20:16:12.092Z,99463.65
2019-05-07T20:18:42.870Z,99462.05
2019-05-07T20:21:12.591Z,99466.36
2019-05-07T20:23:43.446Z,99465.68
2019-05-07T20:26:12.878Z,99462.41
2019-05-07T20:28:42.226Z,99459.13
2019-05-07T20:31:12.206Z,99468.67
2019-05-07T20:33:42.422Z,99469.05
2019-05-07T20:36:12.098Z,99465.26
2019-05-07T20:38:42.759Z,99471.27
2019-05-07T20:41:13.670Z,99470.77
2019-05-07T20:43:46.035Z,99475.90
2019-05-07T20:46:15.405Z,99470.21
2019-05-07T20:48:45.078Z,99463.14
2019-05-07T20:51:14.441Z,99470.06
2019-05-07T20:53:52.251Z,99465.91
2019-05-07T20:56:23.544Z,99464.59
2019-05-07T20:58:52.978Z,99464.27
2019-05-07T21:01:22.457Z,99462.78
2019-05-07T21:03:52.747Z,99460.33
2019-05-07T21:06:22.653Z,99466.31
2019-05-07T21:08:52.203Z,99469.16
2019-05-07T21:11:22.715Z,99468.50
2019-05-07T21:13:52.538Z,99478.38
2019-05-07T21:16:22.269Z,99472.66
2019-05-07T21:18:52.815Z,99478.19
2019-05-07T21:21:22.528Z,99477.47
2019-05-07T21:23:52.680Z,99485.34
2019-05-07T21:26:22.701Z,99487.48
2019-05-07T21:28:52.873Z,99487.99
2019-05-07T21:31:22.867Z,99487.05
2019-05-07T21:33:52.613Z,99484.82
2019-05-07T21:36:22.797Z,99485.19
2019-05-07T21:38:52.551Z,99484.38
2019-05-07T21:41:22.640Z,99487.84
2019-05-07T21:43:52.820Z,99481.56
2019-05-07T21:46:22.585Z,99487.84
2019-05-07T21:48:53.770Z,99485.84
2019-05-07T21:51:23.273Z,99490.75
2019-05-07T21:53:54.342Z,99486.34
2019-05-07T21:56:41.721Z,99492.25
2019-05-07T21:59:18.911Z,99489.70
2019-05-07T22:01:49.913Z,99490.36
2019-05-07T22:04:19.296Z,99484.08
2019-05-07T22:06:48.799Z,99485.68
2019-05-07T22:09:18.730Z,99485.42
2019-05-07T22:11:48.124Z,99482.50
2019-05-07T22:14:17.633Z,99477.91
2019-05-07T22:16:47.007Z,99485.68
2019-05-07T22:19:16.364Z,99486.55
2019-05-07T22:21:45.799Z,99489.91
2019-05-07T22:24:15.339Z,99485.23
2019-05-07T22:26:44.796Z,99489.18
2019-05-07T22:29:14.274Z,99486.99
2019-05-07T22:34:38.204Z,99491.91
2019-05-07T22:37:07.555Z,99490.59
2019-05-07T22:39:36.914Z,99491.44
2019-05-07T22:42:06.285Z,99487.47
2019-05-07T22:44:35.683Z,99484.00
2019-05-07T22:47:06.690Z,99488.02
2019-05-07T22:49:36.060Z,99484.10
2019-05-07T22:52:05.470Z,99484.60
2019-05-07T22:54:34.823Z,99490.12
2019-05-07T22:57:08.564Z,99485.23
2019-05-07T22:59:37.952Z,99483.00
2019-05-07T23:02:07.392Z,99485.23
2019-05-07T23:04:36.790Z,99487.86
2019-05-07T23:07:06.159Z,99482.87
2019-05-07T23:09:35.531Z,99491.33
2019-05-07T23:12:04.918Z,99493.30
2019-05-07T23:14:34.284Z,99495.92
2019-05-07T23:17:03.654Z,99495.27
2019-05-07T23:19:33.077Z,99500.23
2019-05-07T23:22:02.885Z,99492.36
2019-05-07T23:24:32.363Z,99493.01
2019-05-07T23:27:01.739Z,99497.97
2019-05-07T23:29:33.050Z,99496.66
2019-05-07T23:32:02.224Z,99496.47
2019-05-07T23:34:32.578Z,99499.21
2019-05-07T23:37:02.603Z,99500.07
2019-05-07T23:39:36.444Z,99493.01
2019-05-07T23:42:16.355Z,99497.79
2019-05-07T23:44:45.852Z,99496.55
2019-05-07T23:47:22.615Z,99498.70
2019-05-07T23:49:52.353Z,99502.86
2019-05-07T23:52:22.620Z,99496.58
2019-05-07T23:54:52.273Z,99499.68
2019-05-07T23:57:23.156Z,99503.80
2019-05-07T23:59:53.099Z,99501.44
